[Réel] Quand il pleut à un endroit, il fait beau à un autre


(Vincent BAZILLIO) #1

J’ai eu envie d’aller voir d’en haut à quoi ressemblaient ces averses localisées et me confronter au TEMPO ou VCSH des METAR et autres TAF. Et puis, il fallait que j’aille faire du Cirrus, alors. C’était hier en début de soirée.

Voilà les conditions réelles :

[quote]LFPN 171900Z AUTO 25004KT 9999 ///TCU 15/13 Q1012 TEMPO 24015G25KT 4000 -TSRA SCT009 BKN018CB

LFPN 171800Z AUTO 19004KT 9999 ///CB 17/14 Q1011 TEMPO 24015G25KT 4000 -TSRA

LFPN 171700Z AUTO 19004KT 9999 FEW031 OVC086 16/14 Q1010 TEMPO 24015G25KT 4000 -TSRA SCT009 BKN018CB

LFPN 171600Z AUTO VRB03KT 9999 -RA ///CB 15/13 Q1010 TEMPO 24015G25KT 4000 -TSRA[/quote]

[quote]LFPT 171900Z AUTO 23010KT 200V260 9999 SCT034/// BKN044/// OVC052/// ///CB 16/11 Q1012

LFPT 171800Z AUTO 32005KT 9999 VCTS FEW033/// ///CB 19/12 Q1010

LFPT 171700Z AUTO 30007KT 260V330 9999 FEW044 19/12 Q1010

LFPT 171600Z AUTO 30006KT 270V340 CAVOK 19/13 Q1009[/quote]


Celui-là, on voit au travers, mais c’est bien noir et les éclairs ne sont pas loin


Pontoise enter deux averses. L’ombres des nuages ressemblent assez à celles de Prepar3D, non ? :wink:


Finale 05 à Pontoise pour un toucher. Air très calme. Pas de vent (cf. EFIS). Le contrôleur m’a demandé “Vent calme, vous voulez quelle piste ?”


A quelques secondes du toucher piste 05, Pontoise


Un mélange de tout. Au sol et en l’air.


Même en passant au large, on prend de la pluie. Ca lave l’avion. La visibilité est bien meilleure que ce que laisse à penser la photo. La cellule est à droite.


Verticale Les Mureaux (on devine la piste en herbe), au dessus de Paris passe une éclaircie.


On ira pas vers ce truc…


Une trombe d’eau droit devant. Facile d’en faire le tour. On comprend ici le sens de TEMPO dans les TAF/METAR


Un toucher en piste 25R à Toussus ?


On finit par un complet piste 25L à Toussus.


#2

salut,

merci pour ce petit reportage photos… :slight_smile:


(Vincent BAZILLIO) #3

De rien :wink: Je complète de la vidéo du toucher piste 05 à Pontoise et sa très très longue finale dans un air très calme :

[youtube-wide]7gyWvLNdha8[/youtube-wide]


#4

sympa cette petite vidéo comme toutes celles de ton blog :exclamation: :slight_smile:


#5

J’avais raté cette série! :slight_smile:

Merci Vincent du partage! Toutes tes photos sont prises de l’intérieur? Ou tu as une cam fixé à l’extérieur? (je croyais que c’était interdit). Si c’est à l’intérieur, tu me donneras l’adresse de la personne qui lave tes vitres :mrgreen:


(Vincent BAZILLIO) #6

Merci !

Oui, toutes les photos ont été prises de l’intérieur (avec un smartphone). Je suis absolument contre le placement de caméra (genre GoPro) à l’extérieur !


#7

C’est nickel, les clichés sont sublimes.

Tu as raison pour les ombres de nuages, le genre de chose qu’on ne peut apprécier qu’en l’air!